Megalon — 3ETX2 — position and weather

sailwx.info

Track history (hours):
 
Tides and Currents Weather Stations Pressure Air Temp Water Temp Dewpoint Dewpoint Depression Visibility Wind Speed Wind Dir Waves Ship Positions

Megalon

Last reported at 2016-May-24 02:22 UTC. Time now 2016-May-30 18:28 UTC.
Position N 31°05' E 122°00'.

Length 140 m; draft 7.1 m.

Type: Cargo ship. MMSI: 372427000.

Date/timePositionNaut miles runAvg speedWind from/ knotsBaromVisibWave heightAir tempDewpointWater temp
2016-May-24 02:22N 31°05' E 122°00'6 7.7
2016-May-24 01:33N 31°08' E 121°54'1312.4
2016-May-24 00:30N 31°18' E 121°44'1111.8
2016-May-23 23:32N 31°24' E 121°33'9 9.6
2016-May-23 22:33N 31°30' E 121°24'10 9.9
2016-May-23 21:33N 31°38' E 121°16'0 0.1
2016-May-23 20:32N 31°38' E 121°16'0 0.1
2016-May-23 19:29N 31°38' E 121°16'0 0.1
2016-May-23 18:32N 31°38' E 121°16'2 1.6
2016-May-23 17:33N 31°38' E 121°14'9 9.1
2016-May-23 16:31N 31°44' E 121°06'1311.2
2016-May-23 15:21N 31°52' E 120°53'911.3
2016-May-23 14:32N 32°00' E 120°49'1411.6
2016-May-23 13:20N 32°01' E 120°32'810.9
2016-May-23 12:33N 31°60' E 120°22'1212.4
2016-May-23 11:33N 31°56' E 120°09'  
2016-May-21 00:31N 32°07' E 119°55'0 0.0
2016-May-20 23:31N 32°07' E 119°55'6 0.2
2016-May-20 00:20N 32°02' E 119°57'6 7.5
2016-May-19 23:31N 31°58' E 120°02'8 7.9
2016-May-19 22:30N 31°56' E 120°11'9 8.2
2016-May-19 21:28N 31°59' E 120°20'9 8.9
2016-May-19 20:29N 32°04' E 120°29'8 9.1
2016-May-19 19:33N 32°00' E 120°37'10 9.4
2016-May-19 18:28N 31°60' E 120°49'2310.6
2016-May-19 16:17N 31°43' E 121°08'912.1
2016-May-19 15:33N 31°37' E 121°16'1211.6
2016-May-19 14:33N 31°30' E 121°26'1010.0
2016-May-19 13:33N 31°23' E 121°35'2311.2
2016-May-19 11:32N 31°08' E 121°55'105 5.9
2016-May-18 17:32N 29°52' E 123°20'2311.0
2016-May-18 15:25N 29°32' E 123°07'1211.5
2016-May-18 14:22N 29°20' E 123°03'  
2016-May-15 07:33N 22°07' E 114°19'9 8.0
2016-May-15 06:29N 22°09' E 114°10'1 0.2
2016-May-15 00:13N 22°10' E 114°09'4 3.5
2016-May-14 23:10N 22°08' E 114°13'710.6
2016-May-14 22:32N 22°09' E 114°20'  
Track history (hours):
 
Tides and Currents Weather Stations Pressure Air Temp Water Temp Dewpoint Dewpoint Depression Visibility Wind Speed Wind Dir Waves Ship Positions

Megalon

Last reported at 2016-May-24 02:22 UTC. Time now 2016-May-30 18:28 UTC.
Position N 31°05' E 122°00'.

Length 140 m; draft 7.1 m.

Type: Cargo ship. MMSI: 372427000.

Date/timePositionNaut miles runAvg speedWind from/ knotsBaromVisibWave heightAir tempDewpointWater temp
2016-May-24 02:22N 31°05' E 122°00'6 7.7
2016-May-24 01:33N 31°08' E 121°54'1312.4
2016-May-24 00:30N 31°18' E 121°44'1111.8
2016-May-23 23:32N 31°24' E 121°33'9 9.6
2016-May-23 22:33N 31°30' E 121°24'10 9.9
2016-May-23 21:33N 31°38' E 121°16'0 0.1
2016-May-23 20:32N 31°38' E 121°16'0 0.1
2016-May-23 19:29N 31°38' E 121°16'0 0.1
2016-May-23 18:32N 31°38' E 121°16'2 1.6
2016-May-23 17:33N 31°38' E 121°14'9 9.1
2016-May-23 16:31N 31°44' E 121°06'1311.2
2016-May-23 15:21N 31°52' E 120°53'911.3
2016-May-23 14:32N 32°00' E 120°49'1411.6
2016-May-23 13:20N 32°01' E 120°32'810.9
2016-May-23 12:33N 31°60' E 120°22'1212.4
2016-May-23 11:33N 31°56' E 120°09'  
2016-May-21 00:31N 32°07' E 119°55'0 0.0
2016-May-20 23:31N 32°07' E 119°55'6 0.2
2016-May-20 00:20N 32°02' E 119°57'6 7.5
2016-May-19 23:31N 31°58' E 120°02'8 7.9
2016-May-19 22:30N 31°56' E 120°11'9 8.2
2016-May-19 21:28N 31°59' E 120°20'9 8.9
2016-May-19 20:29N 32°04' E 120°29'8 9.1
2016-May-19 19:33N 32°00' E 120°37'10 9.4
2016-May-19 18:28N 31°60' E 120°49'2310.6
2016-May-19 16:17N 31°43' E 121°08'912.1
2016-May-19 15:33N 31°37' E 121°16'1211.6
2016-May-19 14:33N 31°30' E 121°26'1010.0
2016-May-19 13:33N 31°23' E 121°35'2311.2
2016-May-19 11:32N 31°08' E 121°55'105 5.9
2016-May-18 17:32N 29°52' E 123°20'2311.0
2016-May-18 15:25N 29°32' E 123°07'1211.5
2016-May-18 14:22N 29°20' E 123°03'  
2016-May-15 07:33N 22°07' E 114°19'9 8.0
2016-May-15 06:29N 22°09' E 114°10'1 0.2
2016-May-15 00:13N 22°10' E 114°09'4 3.5
2016-May-14 23:10N 22°08' E 114°13'710.6
2016-May-14 22:32N 22°09' E 114°20'  

Dump ship's entire track history